createdAt,value
2023-05-10T00:00:35.939Z,57.6474
2023-05-10T00:01:36.985Z,57.6641
2023-05-10T00:02:38.216Z,57.6491
2023-05-10T00:03:39.263Z,57.6930
2023-05-10T00:04:40.284Z,57.6128
2023-05-10T00:05:41.391Z,57.5236
2023-05-10T00:06:42.442Z,57.3758
2023-05-10T00:07:43.528Z,57.2557
2023-05-10T00:08:44.617Z,57.2449
2023-05-10T00:09:45.705Z,57.0764
2023-05-10T00:10:46.818Z,57.1110
2023-05-10T00:11:47.888Z,57.1157
2023-05-10T00:12:49.052Z,57.0420
2023-05-10T00:13:50.070Z,57.0414
2023-05-10T00:14:51.164Z,56.9656
2023-05-10T00:15:52.245Z,56.8739
2023-05-10T00:16:53.522Z,56.8260
2023-05-10T00:17:54.485Z,56.8622
2023-05-10T00:18:55.548Z,56.9435
2023-05-10T00:19:56.610Z,56.8575
2023-05-10T00:20:57.735Z,56.7686
2023-05-10T00:21:58.798Z,56.8223
2023-05-10T00:22:59.879Z,56.8612
2023-05-10T00:24:00.987Z,56.7875
2023-05-10T00:25:02.076Z,56.6658
2023-05-10T00:26:03.182Z,56.6745
2023-05-10T00:27:04.231Z,56.6190
2023-05-10T00:28:05.327Z,56.5509
2023-05-10T00:29:06.451Z,56.5010
2023-05-10T00:30:07.516Z,56.5314
2023-05-10T00:31:08.610Z,56.5687
2023-05-10T00:32:09.804Z,56.5475
2023-05-10T00:33:10.869Z,56.7001
2023-05-10T00:34:11.899Z,56.9082
2023-05-10T00:35:12.989Z,56.8090
2023-05-10T00:36:14.097Z,56.8008
2023-05-10T00:37:15.169Z,57.0480
2023-05-10T00:38:16.245Z,56.9534
2023-05-10T00:39:17.353Z,56.7626
2023-05-10T00:40:18.712Z,56.5931
2023-05-10T00:41:19.545Z,56.6677
2023-05-10T00:42:20.611Z,56.7430
2023-05-10T00:43:21.704Z,56.7480
2023-05-10T00:44:22.792Z,56.9279
2023-05-10T00:45:23.904Z,56.8349
2023-05-10T00:46:25.019Z,56.7778
2023-05-10T00:47:26.160Z,56.6538
2023-05-10T00:48:27.166Z,56.5072
2023-05-10T00:49:28.250Z,56.3523
2023-05-10T00:50:29.333Z,56.3915
2023-05-10T00:51:30.473Z,56.4695
2023-05-10T00:52:31.537Z,56.4707
2023-05-10T00:53:32.613Z,56.3865
2023-05-10T00:54:33.705Z,56.3808
2023-05-10T00:55:34.793Z,56.4066
2023-05-10T00:56:35.898Z,56.4705
2023-05-10T00:57:36.962Z,56.5355
2023-05-10T00:58:38.056Z,56.4979
2023-05-10T00:59:39.146Z,56.5357
2023-05-10T01:00:40.234Z,56.6217
2023-05-10T01:01:41.391Z,56.6782
2023-05-10T01:02:42.519Z,56.7542
2023-05-10T01:03:43.488Z,57.0083
2023-05-10T01:04:44.642Z,57.0340
2023-05-10T01:05:45.685Z,56.8917
2023-05-10T01:06:46.775Z,56.8651
2023-05-10T01:07:47.847Z,56.9020
2023-05-10T01:08:48.933Z,56.8119
2023-05-10T01:09:50.032Z,56.8413
2023-05-10T01:10:51.109Z,56.9342
2023-05-10T01:11:52.281Z,56.8983
2023-05-10T01:12:53.366Z,56.7464
2023-05-10T01:13:54.376Z,56.7651
2023-05-10T01:14:55.475Z,56.9361
2023-05-10T01:15:56.593Z,56.9403
2023-05-10T01:16:57.700Z,56.9267
2023-05-10T01:17:58.780Z,56.9324
2023-05-10T01:18:59.856Z,56.8498
2023-05-10T01:20:00.945Z,56.7768
2023-05-10T01:21:02.023Z,56.8977
2023-05-10T01:22:03.123Z,56.8149
2023-05-10T01:23:04.196Z,56.7175
2023-05-10T01:24:05.297Z,56.7568
2023-05-10T01:25:06.355Z,56.9057
2023-05-10T01:26:07.444Z,57.0372
2023-05-10T01:27:08.631Z,56.8910
2023-05-10T01:28:09.629Z,56.8828
2023-05-10T01:29:10.727Z,56.7416
2023-05-10T01:30:22.003Z,56.6690
2023-05-10T01:31:13.933Z,56.7373
2023-05-10T01:32:14.018Z,56.7352
2023-05-10T01:33:15.082Z,56.6513
2023-05-10T01:34:16.160Z,56.5245
2023-05-10T01:35:17.251Z,56.4897
2023-05-10T01:36:18.327Z,56.5874
2023-05-10T01:37:19.440Z,56.6596
2023-05-10T01:38:20.525Z,56.5853
2023-05-10T01:39:21.600Z,56.4973
2023-05-10T01:40:22.672Z,56.4884
2023-05-10T01:41:23.762Z,56.4400
2023-05-10T01:42:24.877Z,56.3878
2023-05-10T01:43:25.935Z,56.4486
2023-05-10T01:44:27.038Z,56.4090
2023-05-10T01:45:28.157Z,56.4529
2023-05-10T01:46:29.233Z,56.5817
2023-05-10T01:47:30.354Z,56.6654
2023-05-10T01:48:31.452Z,56.5900
2023-05-10T01:49:32.483Z,56.5261
2023-05-10T01:50:33.574Z,56.4768
2023-05-10T01:51:34.664Z,56.4039
2023-05-10T01:52:35.754Z,56.3256
2023-05-10T01:53:36.836Z,56.2949
2023-05-10T01:54:37.929Z,56.2741
2023-05-10T01:55:39.038Z,56.3106
2023-05-10T01:56:40.121Z,56.2827
2023-05-10T01:57:41.210Z,56.2640
2023-05-10T01:58:42.309Z,56.2922
2023-05-10T01:59:43.402Z,56.3022
2023-05-10T02:00:44.534Z,56.3948
2023-05-10T02:01:45.573Z,56.3472
2023-05-10T02:02:46.709Z,56.3806
2023-05-10T02:03:47.814Z,56.3513
2023-05-10T02:04:48.853Z,56.3241
2023-05-10T02:05:57.479Z,56.2396
2023-05-10T02:06:51.044Z,56.2872
2023-05-10T02:07:52.169Z,56.3557
2023-05-10T02:08:53.212Z,56.3857
2023-05-10T02:09:54.322Z,56.4346
2023-05-10T02:10:55.407Z,56.4745
2023-05-10T02:11:56.494Z,56.5667
2023-05-10T02:12:57.615Z,56.4687
2023-05-10T02:13:58.703Z,56.3612
2023-05-10T02:14:59.795Z,56.3402
2023-05-10T02:16:00.904Z,56.2620
2023-05-10T02:17:02.082Z,56.4038
2023-05-10T02:18:03.151Z,56.5215
2023-05-10T02:19:04.162Z,56.4647
2023-05-10T02:20:05.232Z,56.4814
2023-05-10T02:21:06.387Z,56.5631
2023-05-10T02:22:07.448Z,56.5234
2023-05-10T02:23:08.538Z,56.5207
2023-05-10T02:24:09.619Z,56.5938
2023-05-10T02:25:10.706Z,56.5680
2023-05-10T02:26:11.802Z,56.6319
2023-05-10T02:27:12.896Z,56.6922
2023-05-10T02:28:14.134Z,56.6077
2023-05-10T02:29:15.160Z,56.5637
2023-05-10T02:30:16.367Z,56.6247
2023-05-10T02:31:17.320Z,56.6069
2023-05-10T02:32:18.518Z,56.6043
2023-05-10T02:33:19.532Z,56.6407
2023-05-10T02:34:20.620Z,56.5947
2023-05-10T02:35:21.699Z,56.6394
2023-05-10T02:36:22.784Z,56.8246
2023-05-10T02:37:23.885Z,56.8546
2023-05-10T02:38:24.968Z,56.8143
2023-05-10T02:39:26.043Z,56.7346
2023-05-10T02:40:28.792Z,56.6584
2023-05-10T02:41:28.242Z,56.7029
2023-05-10T02:42:29.328Z,56.7160
2023-05-10T02:43:30.422Z,56.7934
2023-05-10T02:44:31.543Z,56.7962
2023-05-10T02:45:32.595Z,56.6674
2023-05-10T02:46:33.815Z,56.6462
2023-05-10T02:47:34.811Z,56.6707
2023-05-10T02:48:35.891Z,56.7234
2023-05-10T02:49:36.969Z,56.7337
2023-05-10T02:50:38.062Z,56.6917
2023-05-10T02:51:39.156Z,56.5974
2023-05-10T02:52:40.250Z,56.6085
2023-05-10T02:53:41.405Z,56.7011
2023-05-10T02:54:42.411Z,56.7131
2023-05-10T02:55:43.518Z,56.6898
2023-05-10T02:56:44.605Z,56.7506
2023-05-10T02:57:45.711Z,56.8217
2023-05-10T02:58:46.815Z,56.8464
2023-05-10T02:59:47.898Z,56.7553
2023-05-10T03:00:48.952Z,56.7374
2023-05-10T03:01:50.180Z,56.9185
2023-05-10T03:02:51.175Z,56.8341
2023-05-10T03:03:52.289Z,56.8386
2023-05-10T03:04:53.369Z,56.8151
2023-05-10T03:05:54.441Z,56.8109
2023-05-10T03:06:55.505Z,56.6788
2023-05-10T03:07:56.629Z,56.5979
2023-05-10T03:08:57.709Z,56.5044
2023-05-10T03:09:58.788Z,56.6654
2023-05-10T03:10:59.864Z,56.6511
2023-05-10T03:12:00.961Z,56.6624
2023-05-10T03:13:02.083Z,56.7144
2023-05-10T03:14:03.158Z,56.8396
2023-05-10T03:15:04.219Z,56.7962
2023-05-10T03:16:05.336Z,56.8127
2023-05-10T03:17:06.407Z,56.7703
2023-05-10T03:18:07.616Z,56.7745
2023-05-10T03:19:08.579Z,56.7990
2023-05-10T03:20:09.660Z,56.7158
2023-05-10T03:21:10.739Z,56.6414
2023-05-10T03:22:11.853Z,56.6928
2023-05-10T03:23:12.967Z,56.6999
2023-05-10T03:24:14.038Z,56.7183
2023-05-10T03:25:15.119Z,56.6747
2023-05-10T03:26:16.214Z,56.6246
2023-05-10T03:27:17.300Z,56.5441
2023-05-10T03:28:18.395Z,56.5719
2023-05-10T03:29:19.579Z,56.5657
2023-05-10T03:30:20.576Z,56.4996
2023-05-10T03:31:21.685Z,56.5042
2023-05-10T03:32:22.804Z,56.6462
2023-05-10T03:33:23.861Z,56.7373
2023-05-10T03:34:24.998Z,56.6471
2023-05-10T03:35:26.075Z,56.5549
2023-05-10T03:36:27.154Z,56.5488
2023-05-10T03:37:28.261Z,56.6163
2023-05-10T03:38:30.534Z,56.7315
2023-05-10T03:39:30.405Z,56.6066
2023-05-10T03:40:31.474Z,56.5182
2023-05-10T03:41:32.572Z,56.5974
2023-05-10T03:42:33.685Z,56.6039
2023-05-10T03:43:34.781Z,56.5944
2023-05-10T03:44:35.867Z,56.4918
2023-05-10T03:45:36.943Z,56.5294
2023-05-10T03:46:38.085Z,56.5579
2023-05-10T03:47:39.163Z,56.6320
2023-05-10T03:48:40.240Z,56.6258
2023-05-10T03:49:41.368Z,56.6763
2023-05-10T03:50:42.422Z,56.7110
2023-05-10T03:51:43.495Z,56.7436
2023-05-10T03:52:44.620Z,56.6967
2023-05-10T03:53:45.694Z,56.6695
2023-05-10T03:54:46.807Z,56.6441
2023-05-10T03:55:47.861Z,56.6098
2023-05-10T03:56:49.023Z,56.9915
2023-05-10T03:57:50.053Z,57.0259
2023-05-10T03:58:51.123Z,57.0571
2023-05-10T03:59:52.229Z,57.0441
2023-05-10T04:00:53.335Z,56.9669
2023-05-10T04:01:54.490Z,56.9089
2023-05-10T04:02:55.542Z,56.7706
2023-05-10T04:03:56.665Z,56.7043
2023-05-10T04:04:57.689Z,56.7677
2023-05-10T04:05:58.856Z,56.7967
2023-05-10T04:06:59.868Z,56.6766
2023-05-10T04:08:00.968Z,56.6187
2023-05-10T04:09:02.082Z,56.5701
2023-05-10T04:10:03.174Z,56.5996
2023-05-10T04:11:04.230Z,56.5559
2023-05-10T04:12:05.365Z,56.5435
2023-05-10T04:13:06.511Z,56.5789
2023-05-10T04:14:07.503Z,56.4850
2023-05-10T04:15:08.653Z,56.5232
2023-05-10T04:16:09.685Z,56.5287
2023-05-10T04:17:10.817Z,56.5465
2023-05-10T04:18:11.900Z,56.5765
2023-05-10T04:19:12.964Z,56.5672
2023-05-10T04:20:14.193Z,56.4991
2023-05-10T04:21:15.168Z,56.5103
2023-05-10T04:22:16.234Z,56.5485
2023-05-10T04:23:17.300Z,56.5439
2023-05-10T04:24:18.402Z,56.5160
2023-05-10T04:25:19.488Z,56.6388
2023-05-10T04:26:20.577Z,56.8430
2023-05-10T04:27:21.701Z,56.9147
2023-05-10T04:28:22.760Z,56.9469
2023-05-10T04:29:23.863Z,56.8789
2023-05-10T04:30:24.957Z,56.8974
2023-05-10T04:31:26.074Z,56.7701
2023-05-10T04:32:27.191Z,56.7434
2023-05-10T04:33:28.288Z,56.7345
2023-05-10T04:34:29.300Z,56.6903
2023-05-10T04:35:30.385Z,56.7591
2023-05-10T04:36:31.470Z,56.6984
2023-05-10T04:37:32.575Z,56.5702
2023-05-10T04:38:33.728Z,56.5019
2023-05-10T04:39:34.759Z,56.5006
2023-05-10T04:40:35.933Z,56.4550
2023-05-10T04:41:36.919Z,56.4329
2023-05-10T04:42:38.017Z,56.4638
2023-05-10T04:43:39.245Z,56.5878
2023-05-10T04:44:40.207Z,56.5214
2023-05-10T04:45:41.325Z,56.5002
2023-05-10T04:46:42.510Z,56.4878
2023-05-10T04:47:43.521Z,56.4701
2023-05-10T04:48:44.563Z,56.3669
2023-05-10T04:49:45.645Z,56.2989
2023-05-10T04:50:46.771Z,56.2516
2023-05-10T04:51:47.868Z,56.1546
2023-05-10T04:52:48.936Z,56.0896
2023-05-10T04:54:01.446Z,56.1313
2023-05-10T04:54:52.116Z,56.0699
2023-05-10T04:55:52.215Z,56.0334
2023-05-10T04:56:53.294Z,56.0628
2023-05-10T04:57:54.388Z,56.0194
2023-05-10T04:58:55.498Z,56.0508
2023-05-10T04:59:56.544Z,55.9791
2023-05-10T05:00:57.674Z,55.9713
2023-05-10T05:01:58.801Z,55.9520
2023-05-10T05:02:59.930Z,55.8573
2023-05-10T05:04:01.043Z,55.7782
2023-05-10T05:05:02.015Z,55.6391
2023-05-10T05:06:03.168Z,55.5650
2023-05-10T05:07:04.206Z,55.5667
2023-05-10T05:08:05.295Z,55.4859
2023-05-10T05:09:06.396Z,55.5948
2023-05-10T05:10:07.525Z,55.6925
2023-05-10T05:11:08.574Z,55.7255
2023-05-10T05:12:09.706Z,55.6992
2023-05-10T05:13:10.782Z,55.6763
2023-05-10T05:14:11.833Z,55.5246
2023-05-10T05:15:12.967Z,55.4388
2023-05-10T05:16:14.223Z,55.4485
2023-05-10T05:17:15.168Z,55.4489
2023-05-10T05:18:16.233Z,55.3888
2023-05-10T05:19:17.371Z,55.2785
2023-05-10T05:20:18.674Z,55.3100
2023-05-10T05:21:19.516Z,55.2080
2023-05-10T05:22:20.619Z,55.1301
2023-05-10T05:23:21.741Z,55.1188
2023-05-10T05:24:22.786Z,55.0571
2023-05-10T05:25:23.869Z,54.9177
2023-05-10T05:26:24.971Z,54.8282
2023-05-10T05:27:26.053Z,54.8549
2023-05-10T05:28:27.180Z,54.9270
2023-05-10T05:29:28.246Z,54.9443
2023-05-10T05:30:29.342Z,54.9042
2023-05-10T05:31:30.496Z,54.8497
2023-05-10T05:32:31.552Z,54.7849
2023-05-10T05:33:32.617Z,54.8869
2023-05-10T05:34:33.734Z,55.0047
2023-05-10T05:35:34.813Z,54.9506
2023-05-10T05:36:37.619Z,54.9391
2023-05-10T05:37:36.981Z,54.9791
2023-05-10T05:38:38.093Z,54.8954
2023-05-10T05:39:39.229Z,54.8760
2023-05-10T05:40:40.291Z,54.8212
2023-05-10T05:41:41.351Z,54.8521
2023-05-10T05:42:42.458Z,54.9605
2023-05-10T05:43:43.544Z,54.8875
2023-05-10T05:44:44.623Z,54.7833
2023-05-10T05:45:45.777Z,54.8140
2023-05-10T05:46:46.866Z,55.0260
2023-05-10T05:47:47.976Z,55.2251
2023-05-10T05:48:48.987Z,55.1717
2023-05-10T05:49:50.109Z,55.1818
2023-05-10T05:50:51.182Z,55.0428
2023-05-10T05:51:52.270Z,55.0705
2023-05-10T05:52:53.366Z,55.1143
2023-05-10T05:53:54.497Z,55.0942
2023-05-10T05:54:55.549Z,54.9720
2023-05-10T05:55:56.621Z,54.9711
2023-05-10T05:56:59.830Z,54.9923
2023-05-10T05:57:58.829Z,54.8453
2023-05-10T05:58:59.912Z,54.9256
2023-05-10T06:00:01.019Z,54.9670
2023-05-10T06:01:02.099Z,54.9291
2023-05-10T06:02:03.213Z,54.9639
2023-05-10T06:03:04.378Z,54.9326
2023-05-10T06:04:05.444Z,54.8997
2023-05-10T06:05:06.507Z,54.9477
2023-05-10T06:06:07.571Z,54.8747
2023-05-10T06:07:08.704Z,54.7376
2023-05-10T06:08:09.772Z,54.6375
2023-05-10T06:09:10.834Z,54.6883
2023-05-10T06:10:11.929Z,54.7855
2023-05-10T06:11:13.036Z,54.7245
2023-05-10T06:12:14.139Z,54.8329
2023-05-10T06:13:15.245Z,54.9487
2023-05-10T06:14:16.310Z,55.1100
2023-05-10T06:15:17.593Z,55.1940
2023-05-10T06:16:18.503Z,55.1497
2023-05-10T06:17:19.603Z,55.1409
2023-05-10T06:18:20.717Z,55.1184
2023-05-10T06:19:21.785Z,55.0931
2023-05-10T06:20:22.894Z,54.9858
2023-05-10T06:21:24.001Z,54.9359
2023-05-10T06:22:25.063Z,54.8970
2023-05-10T06:23:26.156Z,54.8797
2023-05-10T06:24:27.261Z,54.8731
2023-05-10T06:25:28.360Z,54.8063
2023-05-10T06:26:29.487Z,54.7453
2023-05-10T06:27:30.535Z,54.7108
2023-05-10T06:28:31.710Z,54.5467
2023-05-10T06:29:32.808Z,54.4312
2023-05-10T06:30:33.933Z,54.4427
2023-05-10T06:31:35.011Z,54.7197
2023-05-10T06:32:36.174Z,54.9313
2023-05-10T06:33:37.194Z,54.8862
2023-05-10T06:34:38.254Z,54.8321
2023-05-10T06:35:39.350Z,54.6116
2023-05-10T06:36:40.460Z,54.4607
2023-05-10T06:37:41.603Z,54.3256
2023-05-10T06:38:42.682Z,54.2189
2023-05-10T06:39:43.746Z,54.1971
2023-05-10T06:40:44.834Z,54.0520
2023-05-10T06:41:45.943Z,53.8854
2023-05-10T06:42:47.001Z,53.7937
2023-05-10T06:43:48.133Z,53.7328
2023-05-10T06:44:49.236Z,53.6757
2023-05-10T06:45:50.279Z,53.5498
2023-05-10T06:46:51.446Z,53.3947
2023-05-10T06:47:52.565Z,53.4279
2023-05-10T06:48:53.601Z,53.3167
2023-05-10T06:49:54.678Z,53.2030
2023-05-10T06:50:55.757Z,53.0348
2023-05-10T06:51:56.843Z,52.9151
2023-05-10T06:52:57.960Z,52.9394
2023-05-10T06:53:59.025Z,52.9085
2023-05-10T06:55:00.179Z,52.8758
2023-05-10T06:56:01.212Z,52.8777
2023-05-10T06:57:03.935Z,52.7993
2023-05-10T06:58:03.436Z,52.7744
2023-05-10T06:59:04.575Z,52.6848
2023-05-10T07:00:05.660Z,52.5613
2023-05-10T07:01:06.731Z,52.5387
2023-05-10T07:02:07.848Z,52.5888
2023-05-10T07:03:09.017Z,52.5608
2023-05-10T07:04:09.962Z,52.5664
2023-05-10T07:05:11.037Z,52.5572
2023-05-10T07:06:21.758Z,52.5356
2023-05-10T07:07:14.261Z,52.4753
2023-05-10T07:08:14.371Z,52.4944
2023-05-10T07:09:15.422Z,52.4426
2023-05-10T07:10:16.512Z,52.4125
2023-05-10T07:11:17.628Z,52.4010
2023-05-10T07:12:18.733Z,52.3692
2023-05-10T07:13:19.915Z,52.3120
2023-05-10T07:14:20.933Z,52.3548
2023-05-10T07:15:22.002Z,52.4287
2023-05-10T07:16:23.306Z,52.3714
2023-05-10T07:17:24.216Z,52.3253
2023-05-10T07:18:25.302Z,52.2344
2023-05-10T07:19:26.369Z,52.2228
2023-05-10T07:20:27.490Z,52.1601
2023-05-10T07:21:28.582Z,52.1383
2023-05-10T07:22:29.625Z,52.0524
2023-05-10T07:23:30.762Z,51.9949
2023-05-10T07:24:31.835Z,51.9605
2023-05-10T07:25:32.957Z,51.9579
2023-05-10T07:26:34.058Z,51.9188
2023-05-10T07:27:35.149Z,51.9471
2023-05-10T07:28:36.218Z,51.9579
2023-05-10T07:29:37.301Z,52.0223
2023-05-10T07:30:38.426Z,52.1654
2023-05-10T07:31:39.531Z,52.1957
2023-05-10T07:32:40.755Z,52.1601
2023-05-10T07:33:41.725Z,52.0577
2023-05-10T07:34:42.792Z,51.9864
2023-05-10T07:35:43.919Z,51.9815
2023-05-10T07:36:44.975Z,51.8982
2023-05-10T07:37:46.057Z,52.2828
2023-05-10T07:38:47.171Z,52.5517
2023-05-10T07:39:48.314Z,52.5628
2023-05-10T07:40:49.353Z,52.4463
2023-05-10T07:41:50.469Z,52.3503
2023-05-10T07:42:51.546Z,52.1893
2023-05-10T07:43:52.664Z,52.2791
2023-05-10T07:44:53.739Z,52.3954
2023-05-10T07:45:56.427Z,52.4120
2023-05-10T07:46:55.976Z,52.4153
2023-05-10T07:47:57.100Z,52.2739
2023-05-10T07:48:58.138Z,52.1731
2023-05-10T07:49:59.229Z,52.0903
2023-05-10T07:51:00.310Z,52.2621
2023-05-10T07:52:01.406Z,52.3417
2023-05-10T07:53:02.516Z,52.3721
2023-05-10T07:54:03.631Z,52.4248
2023-05-10T07:55:04.684Z,52.4586
2023-05-10T07:56:05.777Z,52.5978
2023-05-10T07:57:06.901Z,52.7415
2023-05-10T07:58:07.989Z,52.6163
2023-05-10T07:59:11.304Z,52.4129
2023-05-10T08:00:10.174Z,52.4433
2023-05-10T08:01:11.250Z,52.4208
2023-05-10T08:02:12.405Z,52.4667
2023-05-10T08:03:13.584Z,52.5183
2023-05-10T08:04:14.569Z,52.3953
2023-05-10T08:05:16.008Z,52.4651
2023-05-10T08:06:16.720Z,52.5657
2023-05-10T08:07:17.810Z,52.5571
2023-05-10T08:08:18.922Z,52.4362
2023-05-10T08:09:20.153Z,52.4882
2023-05-10T08:10:21.180Z,52.3623
2023-05-10T08:11:22.178Z,52.2327
2023-05-10T08:12:23.297Z,52.0520
2023-05-10T08:13:24.358Z,51.9517
2023-05-10T08:14:25.463Z,51.9387
2023-05-10T08:15:26.540Z,51.9804
2023-05-10T08:16:27.829Z,51.8068
2023-05-10T08:17:28.738Z,51.6266
2023-05-10T08:18:29.877Z,51.5579
2023-05-10T08:19:30.944Z,51.4223
2023-05-10T08:20:32.008Z,51.2912
2023-05-10T08:21:33.116Z,51.1894
2023-05-10T08:22:34.198Z,51.1027
2023-05-10T08:23:35.293Z,51.0725
2023-05-10T08:24:36.418Z,51.2007
2023-05-10T08:25:37.463Z,51.1774
2023-05-10T08:26:38.560Z,51.0594
2023-05-10T08:27:39.644Z,51.0076
2023-05-10T08:28:40.748Z,51.0432
2023-05-10T08:29:49.397Z,50.9661
2023-05-10T08:30:43.938Z,50.8991
2023-05-10T08:31:44.185Z,50.8060
2023-05-10T08:32:45.191Z,50.7250
2023-05-10T08:33:46.234Z,50.7108
2023-05-10T08:34:47.326Z,50.7089
2023-05-10T08:35:48.416Z,50.6450
2023-05-10T08:36:49.511Z,50.6036
2023-05-10T08:37:50.617Z,50.5523
2023-05-10T08:38:52.187Z,50.5160
2023-05-10T08:39:52.815Z,50.4055
2023-05-10T08:40:53.957Z,50.4148
2023-05-10T08:41:55.017Z,50.3467
2023-05-10T08:42:56.087Z,50.2146
2023-05-10T08:43:57.192Z,50.1144
2023-05-10T08:44:58.297Z,50.0123
2023-05-10T08:45:59.418Z,49.9469
2023-05-10T08:47:00.735Z,49.9509
2023-05-10T08:48:01.591Z,49.9537
2023-05-10T08:49:02.710Z,49.8506
2023-05-10T08:50:03.779Z,49.8182
2023-05-10T08:51:04.873Z,49.7669
2023-05-10T08:52:05.973Z,49.6903
2023-05-10T08:53:07.082Z,49.6432
2023-05-10T08:54:08.223Z,49.6330
2023-05-10T08:55:09.318Z,49.5978
2023-05-10T08:56:10.417Z,49.5629
2023-05-10T08:57:11.504Z,49.5734
2023-05-10T08:58:12.624Z,49.5923
2023-05-10T08:59:13.732Z,49.5423
2023-05-10T09:00:14.827Z,49.5147
2023-05-10T09:01:15.966Z,49.5166
2023-05-10T09:02:18.811Z,49.4949
2023-05-10T09:03:18.170Z,49.4647
2023-05-10T09:04:19.325Z,49.4574
2023-05-10T09:05:20.620Z,49.4445
2023-05-10T09:06:21.490Z,49.4174
2023-05-10T09:07:22.567Z,49.3785
2023-05-10T09:08:23.718Z,49.3477
2023-05-10T09:09:24.776Z,49.2715
2023-05-10T09:10:26.013Z,49.2554
2023-05-10T09:11:26.975Z,49.2702
2023-05-10T09:12:28.068Z,49.2392
2023-05-10T09:13:29.210Z,49.2188
2023-05-10T09:14:30.334Z,49.1519
2023-05-10T09:15:31.462Z,49.1217
2023-05-10T09:16:32.517Z,49.1467
2023-05-10T09:17:33.680Z,49.2453
2023-05-10T09:18:34.833Z,49.3147
2023-05-10T09:19:35.834Z,49.3248
2023-05-10T09:20:36.933Z,49.2255
2023-05-10T09:21:38.051Z,49.1837
2023-05-10T09:22:39.161Z,49.1328
2023-05-10T09:23:40.235Z,49.1169
2023-05-10T09:24:41.341Z,49.0141
2023-05-10T09:25:42.482Z,48.9399
2023-05-10T09:26:43.574Z,48.9634
2023-05-10T09:27:44.681Z,48.9428
2023-05-10T09:28:45.832Z,49.0186
2023-05-10T09:29:46.889Z,49.0767
2023-05-10T09:30:48.022Z,49.1501
2023-05-10T09:31:49.099Z,49.3398
2023-05-10T09:32:50.346Z,49.4336
2023-05-10T09:33:51.300Z,49.4300
2023-05-10T09:34:52.517Z,49.2045
2023-05-10T09:35:53.562Z,49.0330
2023-05-10T09:36:54.637Z,49.0255
2023-05-10T09:37:55.743Z,49.0603
2023-05-10T09:38:56.832Z,49.3003
2023-05-10T09:39:57.957Z,49.5608
2023-05-10T09:40:59.067Z,49.5882
2023-05-10T09:42:00.165Z,49.3230
2023-05-10T09:43:01.275Z,49.1700
2023-05-10T09:44:02.381Z,48.9668
2023-05-10T09:45:03.487Z,48.9373
2023-05-10T09:46:04.605Z,48.9379
2023-05-10T09:47:05.727Z,48.8299
2023-05-10T09:48:06.915Z,48.7309
2023-05-10T09:49:07.910Z,48.6479
2023-05-10T09:50:09.037Z,48.5643
2023-05-10T09:51:10.140Z,48.5593
2023-05-10T09:52:11.226Z,48.4702
2023-05-10T09:53:12.403Z,48.4432
2023-05-10T09:54:13.463Z,48.4161
2023-05-10T09:55:14.718Z,48.4207
2023-05-10T09:56:15.670Z,48.3934
2023-05-10T09:57:16.790Z,48.3197
2023-05-10T09:58:17.907Z,48.2994
2023-05-10T09:59:19.012Z,48.2630
2023-05-10T10:00:20.195Z,48.2244
2023-05-10T10:01:21.252Z,48.1164
2023-05-10T10:02:22.387Z,48.0447
2023-05-10T10:03:23.434Z,48.0651
2023-05-10T10:04:24.622Z,48.0652
2023-05-10T10:05:25.676Z,48.0485
2023-05-10T10:06:29.986Z,48.0231
2023-05-10T10:07:27.876Z,48.0816
2023-05-10T10:08:28.969Z,48.1810
2023-05-10T10:09:30.067Z,48.1427
2023-05-10T10:10:31.172Z,48.0843
2023-05-10T10:11:32.289Z,48.1150
2023-05-10T10:12:33.485Z,48.0644
2023-05-10T10:13:34.503Z,47.9881
2023-05-10T10:14:35.596Z,47.9561
2023-05-10T10:15:36.831Z,47.8816
2023-05-10T10:16:43.653Z,47.8198
2023-05-10T10:17:39.961Z,47.7684
2023-05-10T10:18:40.046Z,47.7697
2023-05-10T10:19:41.148Z,47.6617
2023-05-10T10:20:42.217Z,47.5915
2023-05-10T10:21:43.370Z,47.4679
2023-05-10T10:22:44.428Z,47.4572
2023-05-10T10:23:45.532Z,47.4259
2023-05-10T10:24:46.627Z,47.4917
2023-05-10T10:25:47.719Z,47.4343
2023-05-10T10:26:48.848Z,47.3672
2023-05-10T10:27:49.931Z,47.3496
2023-05-10T10:28:51.084Z,47.3263
2023-05-10T10:29:52.205Z,47.2793
2023-05-10T10:30:53.311Z,47.1842
2023-05-10T10:31:54.549Z,47.0882
2023-05-10T10:32:55.507Z,47.0211
2023-05-10T10:33:56.584Z,46.9605
2023-05-10T10:34:57.655Z,46.8758
2023-05-10T10:35:58.761Z,46.8157
2023-05-10T10:36:59.866Z,46.7671
2023-05-10T10:38:00.989Z,46.6952
2023-05-10T10:39:02.048Z,46.6486
2023-05-10T10:40:03.128Z,46.5904
2023-05-10T10:41:04.244Z,46.5209
2023-05-10T10:42:05.343Z,46.4871
2023-05-10T10:43:06.413Z,46.5526
2023-05-10T10:44:07.520Z,46.5658
2023-05-10T10:45:08.620Z,46.5403
2023-05-10T10:46:09.720Z,46.4209
2023-05-10T10:47:11.044Z,46.3872
2023-05-10T10:48:11.909Z,46.3044
2023-05-10T10:49:13.019Z,46.2277
2023-05-10T10:50:14.925Z,46.1796
2023-05-10T10:51:15.183Z,46.1696
2023-05-10T10:52:16.323Z,46.1909
2023-05-10T10:53:17.414Z,46.2933
2023-05-10T10:54:18.519Z,46.2685
2023-05-10T10:55:19.657Z,46.1783
2023-05-10T10:56:20.675Z,46.1421
2023-05-10T10:57:21.769Z,46.1690
2023-05-10T10:58:22.856Z,46.2738
2023-05-10T10:59:23.989Z,46.3075
2023-05-10T11:00:25.067Z,46.3164
2023-05-10T11:01:26.165Z,46.3400
2023-05-10T11:02:27.715Z,46.3779
2023-05-10T11:03:28.361Z,46.3650
2023-05-10T11:04:29.511Z,46.2834
2023-05-10T11:05:30.547Z,46.1905
2023-05-10T11:06:31.656Z,46.1324
2023-05-10T11:07:32.768Z,46.1909
2023-05-10T11:08:35.714Z,46.2219
2023-05-10T11:09:34.920Z,46.2233
2023-05-10T11:10:36.028Z,46.1921
2023-05-10T11:11:37.117Z,46.1270
2023-05-10T11:12:38.220Z,46.0321
2023-05-10T11:13:39.378Z,45.9393
2023-05-10T11:14:40.403Z,45.8915
2023-05-10T11:15:41.581Z,45.8584
2023-05-10T11:16:42.597Z,45.7575
2023-05-10T11:17:43.739Z,45.7034
2023-05-10T11:18:44.933Z,45.6118
2023-05-10T11:19:45.887Z,45.5301
2023-05-10T11:20:46.998Z,45.5091
2023-05-10T11:21:48.087Z,45.4965
2023-05-10T11:22:49.185Z,45.4586
2023-05-10T11:23:50.275Z,45.4826
2023-05-10T11:24:51.371Z,45.4628
2023-05-10T11:25:52.467Z,45.4748
2023-05-10T11:26:53.567Z,45.4836
2023-05-10T11:27:54.703Z,45.5195
2023-05-10T11:28:55.750Z,45.4969
2023-05-10T11:29:56.861Z,45.4819
2023-05-10T11:30:57.926Z,45.4391
2023-05-10T11:31:59.023Z,45.4013
2023-05-10T11:33:00.192Z,45.4140
2023-05-10T11:34:01.223Z,45.4080
2023-05-10T11:35:02.308Z,45.3903
2023-05-10T11:36:03.381Z,45.3850
2023-05-10T11:37:04.493Z,45.3290
2023-05-10T11:38:05.591Z,45.2921
2023-05-10T11:39:06.671Z,45.2330
2023-05-10T11:40:07.775Z,45.2486
2023-05-10T11:41:08.855Z,45.3274
2023-05-10T11:42:10.049Z,45.3556
2023-05-10T11:43:11.060Z,45.3500
2023-05-10T11:44:12.160Z,45.3876
2023-05-10T11:45:13.242Z,45.4397
2023-05-10T11:46:14.344Z,45.5434
2023-05-10T11:47:15.423Z,45.5880
2023-05-10T11:48:16.613Z,45.5681
2023-05-10T11:49:17.618Z,45.5217
2023-05-10T11:50:18.993Z,45.4544
2023-05-10T11:51:19.800Z,45.4428
2023-05-10T11:52:20.922Z,45.3867
2023-05-10T11:53:23.270Z,45.3219
2023-05-10T11:54:23.124Z,45.3141
2023-05-10T11:55:24.247Z,45.2376
2023-05-10T11:56:25.333Z,45.2370
2023-05-10T11:57:26.382Z,45.2196
2023-05-10T11:58:27.484Z,45.1384
2023-05-10T11:59:28.607Z,45.1119
2023-05-10T12:00:29.693Z,45.0358
2023-05-10T12:01:30.748Z,44.9816
2023-05-10T12:02:31.904Z,44.9058
2023-05-10T12:03:33.094Z,44.9438
2023-05-10T12:04:34.067Z,44.8487
2023-05-10T12:05:35.186Z,44.8769
2023-05-10T12:06:36.234Z,44.8633
2023-05-10T12:07:37.322Z,44.6909
2023-05-10T12:08:38.411Z,44.5356
2023-05-10T12:09:44.037Z,44.3948
2023-05-10T12:10:41.642Z,44.3117
2023-05-10T12:11:44.026Z,44.4257
2023-05-10T12:12:42.804Z,44.4731
2023-05-10T12:13:44.049Z,44.3305
2023-05-10T12:14:44.977Z,44.2750
2023-05-10T12:15:46.060Z,44.1839
2023-05-10T12:16:47.343Z,44.1176
2023-05-10T12:17:48.336Z,44.0278
2023-05-10T12:18:49.378Z,43.9771